createdAt,value
2022-10-04T00:02:10.442Z,64.06
2022-10-04T00:05:16.160Z,64.19
2022-10-04T00:08:28.666Z,64.26
2022-10-04T00:11:35.799Z,64.31
2022-10-04T00:14:39.640Z,64.42
2022-10-04T00:17:42.085Z,64.61
2022-10-04T00:20:53.641Z,64.37
2022-10-04T00:24:09.291Z,64.91
2022-10-04T00:27:24.891Z,65.00
2022-10-04T00:30:36.341Z,65.08
2022-10-04T00:33:43.672Z,65.33
2022-10-04T00:36:54.314Z,65.25
2022-10-04T00:40:02.902Z,65.39
2022-10-04T00:43:14.013Z,64.92
2022-10-04T00:46:21.066Z,65.45
2022-10-04T00:49:26.166Z,65.22
2022-10-04T00:52:33.801Z,65.53
2022-10-04T00:55:40.229Z,66.27
2022-10-04T00:59:03.903Z,66.46
2022-10-04T01:02:13.241Z,66.32
2022-10-04T01:05:19.886Z,66.62
2022-10-04T01:08:31.344Z,66.92
2022-10-04T01:11:41.530Z,67.12
2022-10-04T01:14:50.176Z,67.05
2022-10-04T01:18:09.768Z,66.64
2022-10-04T01:21:21.536Z,67.27
2022-10-04T01:24:24.317Z,67.67
2022-10-04T01:27:47.020Z,67.90
2022-10-04T01:30:49.563Z,68.01
2022-10-04T01:33:52.597Z,67.90
2022-10-04T01:36:59.368Z,67.95
2022-10-04T01:40:02.266Z,68.30
2022-10-04T01:43:07.313Z,68.40
2022-10-04T01:46:09.873Z,68.55
2022-10-04T01:49:16.456Z,68.55
2022-10-04T01:52:23.903Z,68.55
2022-10-04T01:55:29.590Z,68.40
2022-10-04T01:58:52.611Z,68.37
2022-10-04T02:01:59.345Z,68.57
2022-10-04T02:05:03.077Z,68.38
2022-10-04T02:08:07.775Z,68.57
2022-10-04T02:11:10.406Z,68.62
2022-10-04T02:14:18.498Z,68.63
2022-10-04T02:17:23.311Z,68.66
2022-10-04T02:20:26.689Z,68.87
2022-10-04T02:23:29.492Z,69.02
2022-10-04T02:26:32.396Z,68.96
2022-10-04T02:29:34.955Z,69.05
2022-10-04T02:32:57.759Z,68.82
2022-10-04T02:36:00.500Z,68.94
2022-10-04T02:39:05.123Z,68.98
2022-10-04T02:42:21.771Z,69.05
2022-10-04T02:45:26.999Z,69.11
2022-10-04T02:48:34.215Z,68.96
2022-10-04T02:51:36.539Z,69.12
2022-10-04T02:54:42.119Z,69.20
2022-10-04T02:57:44.860Z,69.16
2022-10-04T03:00:49.922Z,69.34
2022-10-04T03:03:54.150Z,69.48
2022-10-04T03:06:59.091Z,69.45
2022-10-04T03:10:02.883Z,69.76
2022-10-04T03:13:05.400Z,69.63
2022-10-04T03:16:08.406Z,69.84
2022-10-04T03:19:12.358Z,69.93
2022-10-04T03:22:15.122Z,70.14
2022-10-04T03:25:21.344Z,70.23
2022-10-04T03:28:23.877Z,70.34
2022-10-04T03:31:27.855Z,70.59
2022-10-04T03:34:33.030Z,70.02
2022-10-04T03:37:37.633Z,70.44
2022-10-04T03:40:42.191Z,70.77
2022-10-04T03:43:45.738Z,70.88
2022-10-04T03:46:48.728Z,70.81
2022-10-04T03:49:52.378Z,71.04
2022-10-04T03:53:00.015Z,71.15
2022-10-04T03:56:08.523Z,71.29
2022-10-04T03:59:14.093Z,71.34
2022-10-04T04:02:20.952Z,71.17
2022-10-04T04:05:36.698Z,71.29
2022-10-04T04:08:42.268Z,71.41
2022-10-04T04:11:47.887Z,71.54
2022-10-04T04:14:51.475Z,71.79
2022-10-04T04:17:55.140Z,71.96
2022-10-04T04:20:59.396Z,71.92
2022-10-04T04:24:05.325Z,71.87
2022-10-04T04:27:10.500Z,71.78
2022-10-04T04:30:16.983Z,71.81
2022-10-04T04:33:26.895Z,71.81
2022-10-04T04:36:33.403Z,71.66
2022-10-04T04:39:39.830Z,71.49
2022-10-04T04:42:45.609Z,71.18
2022-10-04T04:46:02.931Z,71.06
2022-10-04T04:49:15.232Z,71.03
2022-10-04T04:52:19.662Z,70.92
2022-10-04T04:55:44.689Z,70.81
2022-10-04T04:58:57.286Z,70.74
2022-10-04T05:02:00.019Z,70.57
2022-10-04T05:05:18.930Z,70.46
2022-10-04T05:08:23.113Z,70.41
2022-10-04T05:11:29.524Z,70.11
2022-10-04T05:14:32.462Z,70.01
2022-10-04T05:17:35.161Z,69.39
2022-10-04T05:20:38.034Z,69.31
2022-10-04T05:23:40.293Z,69.22
2022-10-04T05:26:43.123Z,68.53
2022-10-04T05:29:57.770Z,68.59
2022-10-04T05:33:14.638Z,68.49
2022-10-04T05:36:35.480Z,67.87
2022-10-04T05:39:45.109Z,67.10
2022-10-04T05:42:48.138Z,67.56
2022-10-04T05:46:09.636Z,67.36
2022-10-04T05:49:19.005Z,67.07
2022-10-04T05:52:25.188Z,66.87
2022-10-04T05:55:29.011Z,66.62
2022-10-04T05:58:45.724Z,66.77
2022-10-04T06:01:57.105Z,66.47
2022-10-04T06:05:02.505Z,66.12
2022-10-04T06:08:16.974Z,66.31
2022-10-04T06:11:32.110Z,66.10
2022-10-04T06:14:54.910Z,65.77
2022-10-04T06:18:00.655Z,65.66
2022-10-04T06:21:02.801Z,65.56
2022-10-04T06:24:11.210Z,64.91
2022-10-04T06:27:16.285Z,63.97
2022-10-04T06:30:19.614Z,64.07
2022-10-04T06:33:21.785Z,63.45
2022-10-04T06:36:41.129Z,62.77
2022-10-04T06:40:06.484Z,63.09
2022-10-04T06:43:19.704Z,63.13
2022-10-04T06:46:21.989Z,62.19
2022-10-04T06:49:33.575Z,62.16
2022-10-04T06:52:49.851Z,61.72
2022-10-04T06:55:55.442Z,61.65
2022-10-04T06:59:08.079Z,61.45
2022-10-04T07:02:21.123Z,61.03
2022-10-04T07:05:30.532Z,60.77
2022-10-04T07:08:34.167Z,60.47
2022-10-04T07:11:43.526Z,59.26
2022-10-04T07:14:51.984Z,58.75
2022-10-04T07:17:56.425Z,58.62
2022-10-04T07:21:03.208Z,58.57
2022-10-04T07:24:09.069Z,58.96
2022-10-04T07:27:16.372Z,57.46
2022-10-04T07:30:20.721Z,57.69
2022-10-04T07:33:25.065Z,58.50
2022-10-04T07:36:27.305Z,58.67
2022-10-04T07:39:34.610Z,57.65
2022-10-04T07:42:42.871Z,56.82
2022-10-04T07:45:46.451Z,54.63
2022-10-04T07:48:49.349Z,44.52
2022-10-04T07:51:51.992Z,31.72
2022-10-04T07:55:12.667Z,21.90
2022-10-04T07:58:24.368Z,16.30
2022-10-04T08:01:33.704Z,13.06
2022-10-04T08:04:49.015Z,12.00
2022-10-04T08:08:27.090Z,15.16
2022-10-04T08:11:46.578Z,19.13
2022-10-04T08:14:53.539Z,24.80
2022-10-04T08:18:01.358Z,28.86
2022-10-04T08:21:08.312Z,32.50
2022-10-04T08:24:20.525Z,35.32
2022-10-04T08:28:13.580Z,37.27
2022-10-04T08:31:35.331Z,38.51
2022-10-04T08:34:56.591Z,40.50
2022-10-04T08:38:18.347Z,41.57
2022-10-04T08:41:24.292Z,42.57
2022-10-04T08:44:50.427Z,43.46
2022-10-04T08:47:55.891Z,44.55
2022-10-04T08:51:04.679Z,44.98
2022-10-04T08:54:16.371Z,45.14
2022-10-04T08:57:19.269Z,44.97
2022-10-04T09:00:40.051Z,45.19
2022-10-04T09:04:01.844Z,45.14
2022-10-04T09:07:23.623Z,44.94
2022-10-04T09:10:33.109Z,44.71
2022-10-04T09:13:38.116Z,43.72
2022-10-04T09:17:07.847Z,42.34
2022-10-04T09:20:37.694Z,40.20
2022-10-04T09:23:57.900Z,38.17
2022-10-04T09:27:06.299Z,36.95
2022-10-04T09:30:25.148Z,36.49
2022-10-04T09:33:46.293Z,35.88
2022-10-04T09:36:58.362Z,36.72
2022-10-04T09:40:31.590Z,37.86
2022-10-04T09:43:47.885Z,39.01
2022-10-04T09:46:55.683Z,39.67
2022-10-04T09:50:19.013Z,39.45
2022-10-04T09:53:42.268Z,40.11
2022-10-04T09:56:45.308Z,39.97
2022-10-04T10:00:10.367Z,41.03
2022-10-04T10:03:16.039Z,41.43
2022-10-04T10:06:30.719Z,42.06
2022-10-04T10:09:58.848Z,42.48
2022-10-04T10:13:32.007Z,42.49
2022-10-04T10:16:40.672Z,42.78
2022-10-04T10:19:52.843Z,43.18
2022-10-04T10:23:05.345Z,43.66
2022-10-04T10:26:14.334Z,43.48
2022-10-04T10:29:16.895Z,43.65
2022-10-04T10:32:29.196Z,43.64
2022-10-04T10:35:37.677Z,43.19
2022-10-04T10:38:50.844Z,42.43
2022-10-04T10:42:06.769Z,39.38
2022-10-04T10:45:28.123Z,38.61
2022-10-04T10:48:43.895Z,38.79
2022-10-04T10:52:10.897Z,39.04
2022-10-04T10:55:51.544Z,37.88
2022-10-04T10:59:03.302Z,36.49
2022-10-04T11:02:11.705Z,34.91
2022-10-04T11:05:33.254Z,33.74
2022-10-04T11:08:57.074Z,33.04
2022-10-04T11:12:05.453Z,32.49
2022-10-04T11:15:27.031Z,31.37
2022-10-04T11:18:45.878Z,30.20
2022-10-04T11:22:09.415Z,29.46
2022-10-04T11:25:11.944Z,29.34
2022-10-04T11:28:17.090Z,29.59
2022-10-04T11:31:32.345Z,29.74
2022-10-04T11:34:38.290Z,30.57
2022-10-04T11:37:41.488Z,31.60
2022-10-04T11:40:44.064Z,32.88
2022-10-04T11:44:05.164Z,33.86
2022-10-04T11:47:16.057Z,34.18
2022-10-04T11:50:22.626Z,34.91
2022-10-04T11:53:39.255Z,35.66
2022-10-04T11:57:07.234Z,36.02
2022-10-04T12:00:23.945Z,36.82
2022-10-04T12:03:28.167Z,37.51
2022-10-04T12:06:43.382Z,36.57
2022-10-04T12:10:01.938Z,35.05
2022-10-04T12:13:22.868Z,33.85
2022-10-04T12:16:29.876Z,33.40
2022-10-04T12:19:54.181Z,33.08
2022-10-04T12:23:16.325Z,32.71
2022-10-04T12:26:37.328Z,32.08
2022-10-04T12:30:00.165Z,30.64
2022-10-04T12:33:18.088Z,30.22
2022-10-04T12:36:27.370Z,30.63
2022-10-04T12:39:38.971Z,31.13
2022-10-04T12:43:00.167Z,31.05
2022-10-04T12:46:09.870Z,31.37
2022-10-04T12:49:33.633Z,32.10
2022-10-04T12:52:51.352Z,31.96
2022-10-04T12:55:59.875Z,31.96
2022-10-04T12:59:02.353Z,31.87
2022-10-04T13:02:21.276Z,32.50
2022-10-04T13:05:51.236Z,32.70
2022-10-04T13:08:53.704Z,32.30
2022-10-04T13:12:08.476Z,30.87
2022-10-04T13:15:23.113Z,30.70
2022-10-04T13:18:25.814Z,30.66
2022-10-04T13:21:40.414Z,30.28
2022-10-04T13:24:59.504Z,30.50
2022-10-04T13:28:10.894Z,31.17
2022-10-04T13:31:16.563Z,31.87
2022-10-04T13:34:31.483Z,32.35
2022-10-04T13:37:44.987Z,32.50
2022-10-04T13:40:47.482Z,31.97
2022-10-04T13:43:52.684Z,32.01
2022-10-04T13:47:10.628Z,32.35
2022-10-04T13:50:29.717Z,32.25
2022-10-04T13:53:54.499Z,32.37
2022-10-04T13:57:17.197Z,32.63
2022-10-04T14:00:32.224Z,32.73
2022-10-04T14:03:50.013Z,32.64
2022-10-04T14:07:11.699Z,33.49
2022-10-04T14:10:34.766Z,34.19
2022-10-04T14:13:40.702Z,34.90
2022-10-04T14:17:03.343Z,35.58
2022-10-04T14:20:11.633Z,35.82
2022-10-04T14:23:21.225Z,36.78
2022-10-04T14:26:25.283Z,37.38
2022-10-04T14:29:57.519Z,38.13
2022-10-04T14:33:00.111Z,39.12
2022-10-04T14:36:16.069Z,39.93
2022-10-04T14:39:21.339Z,40.56
2022-10-04T14:42:31.324Z,41.11
2022-10-04T14:45:42.760Z,41.96
2022-10-04T14:48:45.891Z,42.48
2022-10-04T14:52:14.401Z,43.28
2022-10-04T14:55:26.328Z,43.52
2022-10-04T14:58:41.409Z,43.55
2022-10-04T15:01:47.700Z,43.16
2022-10-04T15:05:28.610Z,43.68
2022-10-04T15:08:31.287Z,43.68
2022-10-04T15:12:21.717Z,43.73
2022-10-04T15:15:41.697Z,43.83
2022-10-04T15:18:47.100Z,44.34
2022-10-04T15:21:55.436Z,44.77
2022-10-04T15:24:58.326Z,44.99
2022-10-04T15:28:05.910Z,45.17
2022-10-04T15:31:26.973Z,45.43
2022-10-04T15:34:29.812Z,45.72
2022-10-04T15:37:47.420Z,45.87
2022-10-04T15:40:53.139Z,46.19
2022-10-04T15:43:55.386Z,46.34
2022-10-04T15:46:58.046Z,46.74
2022-10-04T15:50:12.337Z,46.92
2022-10-04T15:53:33.543Z,47.23
2022-10-04T15:56:35.993Z,47.70
2022-10-04T15:59:39.122Z,48.74
2022-10-04T16:02:41.434Z,48.84
2022-10-04T16:05:47.203Z,49.92
2022-10-04T16:08:59.604Z,50.16
2022-10-04T16:12:20.244Z,50.53
2022-10-04T16:15:34.506Z,50.74
2022-10-04T16:18:46.926Z,51.35
2022-10-04T16:22:15.980Z,51.46
2022-10-04T16:25:25.333Z,52.01
2022-10-04T16:28:30.600Z,52.50
2022-10-04T16:31:45.736Z,52.88
2022-10-04T16:34:54.441Z,53.29
2022-10-04T16:38:06.521Z,53.55
2022-10-04T16:41:28.079Z,53.91
2022-10-04T16:44:36.941Z,54.47
2022-10-04T16:47:48.251Z,54.62
2022-10-04T16:51:09.730Z,54.98
2022-10-04T16:54:38.530Z,55.52
2022-10-04T16:57:43.420Z,55.73
2022-10-04T17:00:46.545Z,56.54
2022-10-04T17:03:53.159Z,56.72
2022-10-04T17:06:59.899Z,57.05
2022-10-04T17:10:05.579Z,57.18
2022-10-04T17:13:08.132Z,57.39
2022-10-04T17:16:21.886Z,57.62
2022-10-04T17:19:42.632Z,58.04
2022-10-04T17:22:57.481Z,58.29
2022-10-04T17:26:02.695Z,58.51
2022-10-04T17:29:28.717Z,58.75
2022-10-04T17:32:30.925Z,58.90
2022-10-04T17:35:46.473Z,59.27
2022-10-04T17:39:14.327Z,59.52
2022-10-04T17:42:31.910Z,59.70
2022-10-04T17:45:52.695Z,59.89
2022-10-04T17:49:17.205Z,60.19
2022-10-04T17:52:52.787Z,60.41
2022-10-04T17:55:57.102Z,60.59
2022-10-04T17:58:59.648Z,60.75
2022-10-04T18:02:17.842Z,60.96
2022-10-04T18:05:26.964Z,61.21
2022-10-04T18:08:39.416Z,61.43
2022-10-04T18:11:47.374Z,61.57
2022-10-04T18:15:07.237Z,61.68
2022-10-04T18:18:18.846Z,61.79
2022-10-04T18:21:28.859Z,61.97
2022-10-04T18:24:31.506Z,62.13
2022-10-04T18:27:48.487Z,62.25
2022-10-04T18:30:58.817Z,62.33
2022-10-04T18:34:04.440Z,62.24
2022-10-04T18:37:20.710Z,62.21
2022-10-04T18:40:28.544Z,62.23
2022-10-04T18:43:57.648Z,62.27
2022-10-04T18:47:00.601Z,62.34
2022-10-04T18:50:16.400Z,62.34
2022-10-04T18:53:19.724Z,62.43
2022-10-04T18:56:22.822Z,62.45
2022-10-04T18:59:51.071Z,62.57
2022-10-04T19:03:12.388Z,62.64
2022-10-04T19:06:32.884Z,62.94
2022-10-04T19:09:44.556Z,63.05
2022-10-04T19:12:51.578Z,63.11
2022-10-04T19:16:13.970Z,63.28
2022-10-04T19:19:16.462Z,63.33
2022-10-04T19:22:19.012Z,63.22
2022-10-04T19:25:35.351Z,63.15
2022-10-04T19:28:38.707Z,63.17
2022-10-04T19:31:41.191Z,63.15
2022-10-04T19:34:44.477Z,63.07
2022-10-04T19:37:58.348Z,63.24
2022-10-04T19:41:03.586Z,63.28
2022-10-04T19:44:25.149Z,63.31
2022-10-04T19:47:35.247Z,63.48
2022-10-04T19:50:45.247Z,63.71
2022-10-04T19:53:50.140Z,64.19
2022-10-04T19:56:56.088Z,64.36
2022-10-04T19:59:59.679Z,64.40
2022-10-04T20:03:02.771Z,64.61
2022-10-04T20:06:05.716Z,64.80
2022-10-04T20:09:28.792Z,64.95
2022-10-04T20:12:36.003Z,65.25
2022-10-04T20:15:38.634Z,65.50
2022-10-04T20:18:41.970Z,65.81
2022-10-04T20:21:45.359Z,65.98
2022-10-04T20:24:47.845Z,66.03
2022-10-04T20:27:50.281Z,66.00
2022-10-04T20:30:54.060Z,66.13
2022-10-04T20:34:16.442Z,66.46
2022-10-04T20:37:19.327Z,66.78
2022-10-04T20:40:21.687Z,67.09
2022-10-04T20:43:26.048Z,67.35
2022-10-04T20:46:38.112Z,67.49
2022-10-04T20:49:44.261Z,67.50
2022-10-04T20:52:54.355Z,67.60
2022-10-04T20:56:11.828Z,67.78
2022-10-04T20:59:16.033Z,67.90
2022-10-04T21:02:18.928Z,68.07
2022-10-04T21:05:27.228Z,68.17
2022-10-04T21:08:30.036Z,68.28
2022-10-04T21:11:45.994Z,68.47
2022-10-04T21:15:01.484Z,68.55
2022-10-04T21:18:08.452Z,68.73
2022-10-04T21:21:14.619Z,69.01
2022-10-04T21:24:46.571Z,69.29
2022-10-04T21:27:49.078Z,69.59
2022-10-04T21:30:51.825Z,69.90
2022-10-04T21:33:54.451Z,70.26
2022-10-04T21:36:57.004Z,70.44
2022-10-04T21:39:59.725Z,70.61
2022-10-04T21:43:02.149Z,70.75
2022-10-04T21:46:04.971Z,70.40
2022-10-04T21:49:07.513Z,70.47
2022-10-04T21:52:10.240Z,70.48
2022-10-04T21:55:12.684Z,70.54
2022-10-04T21:58:15.262Z,70.52
2022-10-04T22:01:17.755Z,70.58
2022-10-04T22:04:20.293Z,70.52
2022-10-04T22:07:22.840Z,70.43
2022-10-04T22:10:25.774Z,70.48
2022-10-04T22:13:28.268Z,70.57
2022-10-04T22:16:30.985Z,70.74
2022-10-04T22:19:33.787Z,70.70
2022-10-04T22:22:39.776Z,70.91
2022-10-04T22:25:42.487Z,71.22
2022-10-04T22:28:50.183Z,71.38
2022-10-04T22:31:53.063Z,71.64
2022-10-04T22:35:01.821Z,71.84
2022-10-04T22:38:05.845Z,72.10
2022-10-04T22:41:18.918Z,72.32
2022-10-04T22:44:41.655Z,72.46
2022-10-04T22:47:44.479Z,72.63
2022-10-04T22:50:47.091Z,72.82
2022-10-04T22:53:49.652Z,73.03
2022-10-04T22:56:52.881Z,73.16
2022-10-04T22:59:55.903Z,73.31
2022-10-04T23:02:58.687Z,73.47
2022-10-04T23:06:02.147Z,73.48
2022-10-04T23:09:04.606Z,73.46
2022-10-04T23:12:08.678Z,73.38
2022-10-04T23:15:14.690Z,73.31
2022-10-04T23:18:18.186Z,73.34
2022-10-04T23:21:25.090Z,73.36
2022-10-04T23:24:30.282Z,73.35
2022-10-04T23:27:33.990Z,73.43
2022-10-04T23:30:36.496Z,73.35
2022-10-04T23:33:40.391Z,73.34
2022-10-04T23:36:43.220Z,73.29
2022-10-04T23:39:46.032Z,73.38
2022-10-04T23:42:49.608Z,73.47
2022-10-04T23:45:53.564Z,73.66
2022-10-04T23:48:56.248Z,73.66
2022-10-04T23:52:01.459Z,73.59
2022-10-04T23:55:13.989Z,73.46
2022-10-04T23:58:21.023Z,73.29
